Flight Track Log - Related Links

Times and Time Zones

All times are in EDT time to prevent confusion due to time zone crossing. See the N839CA flight status page for this flight to view local times or setup timezone preferences in your user account.

Time Position Orientation Groundspeed Altitude Reporting Facility
EDT Latitude Longitude Course Direction KTS MPH feet Rate Location/Type
Thu 10:11:49 AM 39.2167 -76.6833 46° Northeast 178 205 1,700  Level Potomac TRACON
Thu 10:12:49 AM 39.2667 -76.6500 27° Northeast 184 212 3,000 1,250 Climbing Potomac TRACON
Thu 10:13:49 AM 39.2667 -76.5833 90° East 207 238 4,200 1,096 Climbing Potomac TRACON
Thu 10:14:44 AM 39.2667 -76.5167 90° East 211 243 5,100 936 Climbing Potomac TRACON
Thu 10:15:38 AM 39.2500 -76.4500 108° East 224 258 5,900 947 Climbing Potomac TRACON
Thu 10:16:00 AM 39.2236 -76.1352 46° Northeast  Level FlightAware Approximate
Thu 10:16:38 AM 39.2500 -76.3667 90° East 227 261 6,900  Level Potomac TRACON
Thu 10:17:38 AM 39.2333 -76.2833 104° East 232 267 7,800 842 Climbing Potomac TRACON
Thu 10:18:32 AM 39.2500 -76.2333 67° East 229 264 8,500 900 Climbing Potomac TRACON
Thu 10:19:38 AM 39.2833 -76.1500 63° Northeast 222 255 9,600 900 Climbing Potomac TRACON
Thu 10:20:32 AM 39.3167 -76.1000 49° Northeast 224 258 10,300 442 Climbing Potomac TRACON
Thu 10:22:48 AM 39.4167 -75.9500 49° Northeast 262 302 11,000 214 Climbing Philadelphia TRACON
Thu 10:23:48 AM 39.4667 -75.8667 52° Northeast 267 307 11,000  Level Philadelphia TRACON
Thu 10:24:42 AM 39.5167 -75.8000 46° Northeast 274 315 11,000  Level Philadelphia TRACON
Thu 10:25:42 AM 39.5667 -75.7500 38° Northeast 274 315 11,000  Level Philadelphia TRACON
Thu 10:26:42 AM 39.6167 -75.6833 46° Northeast 269 310 11,000  Level Philadelphia TRACON
Thu 10:27:42 AM 39.6833 -75.6167 38° Northeast 269 310 11,000  Level Philadelphia TRACON
Thu 10:28:42 AM 39.7000 -75.5167 78° East 277 319 11,000 -400 Level Philadelphia TRACON
Thu 10:29:42 AM 39.7333 -75.4167 67° East 294 338 10,200 -500 Descending Philadelphia TRACON
Thu 10:30:42 AM 39.7667 -75.3167 67° East 295 339 10,000 -350 Descending Philadelphia TRACON
Thu 10:31:42 AM 39.7833 -75.2167 78° East 281 323 9,500 -650 Descending Philadelphia TRACON
Thu 10:32:42 AM 39.8167 -75.1333 62° Northeast 286 329 8,700 -750 Descending Philadelphia TRACON
Thu 10:33:42 AM 39.8500 -75.0333 67° East 282 325 8,000 -350 Descending Philadelphia TRACON
Thu 10:34:42 AM 39.8833 -74.9500 62° Northeast 248 285 8,000 -150 Level Philadelphia TRACON
Thu 10:35:42 AM 39.9333 -74.8833 46° Northeast 265 305 7,700 -500 Descending Philadelphia TRACON
Thu 10:36:42 AM 39.9833 -74.8167 46° Northeast 275 316 7,000 -408 Descending Philadelphia TRACON
Thu 10:37:25 AM 40.0167 -74.7667 49° Northeast 258 297 7,000  Level New York TRACON
Thu 10:38:19 AM 40.0667 -74.7000 46° Northeast 263 303 7,000  Level New York TRACON
Thu 10:39:19 AM 40.1167 -74.6333 46° Northeast 268 308 7,000  Level New York TRACON
Thu 10:40:19 AM 40.1667 -74.5667 46° Northeast 265 305 7,000  Level New York TRACON
Thu 10:41:13 AM 40.2167 -74.5333 27° Northeast 264 304 7,000 -368 Level New York TRACON
Thu 10:42:13 AM 40.2833 -74.4833 30° Northeast 264 304 6,300 -850 Descending New York TRACON
Thu 10:43:13 AM 40.3500 -74.4333 30° Northeast 259 298 5,300 -1,100 Descending New York TRACON
Thu 10:44:13 AM 40.4000 -74.3667 45° Northeast 260 299 4,100 -1,148 Descending New York TRACON
Thu 10:45:08 AM 40.4667 -74.3333 21° North 246 283 3,100 -684 Descending New York TRACON
Thu 10:46:07 AM 40.5167 -74.2833 37° Northeast 205 236 2,800 -151 Descending New York TRACON
Thu 10:47:07 AM 40.5667 -74.2500 27° Northeast 197 227 2,800 -524 Level New York TRACON
Thu 10:48:13 AM 40.6000 -74.2167 37° Northeast 162 186 1,700 -857 Descending New York TRACON
Thu 10:49:13 AM 40.6333 -74.2000 21° North 123 142 1,000 -700 Descending New York TRACON
Thu 10:50:13 AM 40.6667 -74.1833 21° North 115 132 300 -700 Descending New York TRACON
Thu 10:52:00 AM 40.6833 -74.1667 21° North  Level FlightAware Approximate
Thu 10:59:00 AM 40.6925 -74.1687 21° North  Level Estimated

Login

Don't have an account? Register now (free) for customized features, flight alerts, and more!